createdAt,value
2018-12-11T00:00:34.465Z,1024.72
2018-12-11T00:01:34.452Z,1024.68
2018-12-11T00:02:34.439Z,1024.63
2018-12-11T00:03:34.427Z,1024.7
2018-12-11T00:04:34.414Z,1024.61
2018-12-11T00:05:34.401Z,1024.62
2018-12-11T00:06:34.387Z,1024.59
2018-12-11T00:07:34.376Z,1024.58
2018-12-11T00:08:34.362Z,1024.6
2018-12-11T00:09:34.351Z,1024.61
2018-12-11T00:10:34.336Z,1024.59
2018-12-11T00:11:34.324Z,1024.61
2018-12-11T00:12:34.312Z,1024.63
2018-12-11T00:13:34.298Z,1024.6
2018-12-11T00:14:34.286Z,1024.61
2018-12-11T00:15:34.271Z,1024.61
2018-12-11T00:16:34.260Z,1024.61
2018-12-11T00:17:34.245Z,1024.52
2018-12-11T00:18:34.233Z,1024.57
2018-12-11T00:19:34.220Z,1024.57
2018-12-11T00:20:34.222Z,1024.5
2018-12-11T00:21:34.194Z,1024.57
2018-12-11T00:22:34.181Z,1024.5
2018-12-11T00:23:34.169Z,1024.55
2018-12-11T00:24:34.155Z,1024.56
2018-12-11T00:25:34.142Z,1024.6
2018-12-11T00:26:34.139Z,1024.59
2018-12-11T00:27:34.118Z,1024.54
2018-12-11T00:28:34.104Z,1024.56
2018-12-11T00:29:34.092Z,1024.6
2018-12-11T00:30:34.079Z,1024.58
2018-12-11T00:31:34.067Z,1024.61
2018-12-11T00:32:34.052Z,1024.43
2018-12-11T00:33:34.040Z,1024.52
2018-12-11T00:34:34.027Z,1024.46
2018-12-11T00:35:34.014Z,1024.55
2018-12-11T00:36:34.002Z,1024.46
2018-12-11T00:37:33.991Z,1024.51
2018-12-11T00:38:33.976Z,1024.54
2018-12-11T00:39:33.963Z,1024.48
2018-12-11T00:40:33.951Z,1024.49
2018-12-11T00:41:33.937Z,1024.53
2018-12-11T00:42:33.925Z,1024.54
2018-12-11T00:43:33.920Z,1024.52
2018-12-11T00:44:33.899Z,1024.56
2018-12-11T00:45:33.887Z,1024.56
2018-12-11T00:46:33.874Z,1024.55
2018-12-11T00:47:33.864Z,1024.58
2018-12-11T00:48:33.850Z,1024.53
2018-12-11T00:49:33.836Z,1024.59
2018-12-11T00:50:33.823Z,1024.51
2018-12-11T00:51:33.809Z,1024.49
2018-12-11T00:52:33.806Z,1024.5
2018-12-11T00:53:33.784Z,1024.5
2018-12-11T00:54:33.770Z,1024.53
2018-12-11T00:55:33.757Z,1024.51
2018-12-11T00:56:33.745Z,1024.49
2018-12-11T00:57:33.731Z,1024.46
2018-12-11T00:58:33.726Z,1024.45
2018-12-11T00:59:33.707Z,1024.45
2018-12-11T01:00:33.694Z,1024.47
2018-12-11T01:01:33.680Z,1024.54
2018-12-11T01:02:33.668Z,1024.5
2018-12-11T01:03:34.657Z,1024.56
2018-12-11T01:04:33.643Z,1024.6
2018-12-11T01:05:33.630Z,1024.58
2018-12-11T01:06:33.617Z,1024.63
2018-12-11T01:07:33.604Z,1024.59
2018-12-11T01:08:33.591Z,1024.6
2018-12-11T01:09:33.579Z,1024.56
2018-12-11T01:10:33.566Z,1024.54
2018-12-11T01:11:33.552Z,1024.52
2018-12-11T01:12:33.539Z,1024.48
2018-12-11T01:13:33.526Z,1024.53
2018-12-11T01:14:33.513Z,1024.49
2018-12-11T01:15:33.501Z,1024.54
2018-12-11T01:16:33.487Z,1024.45
2018-12-11T01:17:33.476Z,1024.54
2018-12-11T01:18:33.463Z,1024.58
2018-12-11T01:19:33.449Z,1024.56
2018-12-11T01:20:33.437Z,1024.55
2018-12-11T01:21:33.432Z,1024.46
2018-12-11T01:22:33.412Z,1024.47
2018-12-11T01:23:33.399Z,1024.55
2018-12-11T01:24:33.386Z,1024.49
2018-12-11T01:25:33.372Z,1024.42
2018-12-11T01:26:33.360Z,1024.37
2018-12-11T01:27:33.345Z,1024.4
2018-12-11T01:28:33.332Z,1024.41
2018-12-11T01:29:33.323Z,1024.36
2018-12-11T01:30:33.307Z,1024.44
2018-12-11T01:31:33.295Z,1024.37
2018-12-11T01:32:33.282Z,1024.39
2018-12-11T01:33:33.269Z,1024.42
2018-12-11T01:34:33.255Z,1024.39
2018-12-11T01:35:33.244Z,1024.32
2018-12-11T01:36:33.233Z,1024.36
2018-12-11T01:37:33.218Z,1024.25
2018-12-11T01:38:33.206Z,1024.35
2018-12-11T01:39:33.193Z,1024.32
2018-12-11T01:40:33.180Z,1024.35
2018-12-11T01:41:33.168Z,1024.38
2018-12-11T01:42:33.156Z,1024.36
2018-12-11T01:43:33.142Z,1024.4
2018-12-11T01:44:33.129Z,1024.34
2018-12-11T01:45:33.116Z,1024.39
2018-12-11T01:46:33.103Z,1024.38
2018-12-11T01:47:33.090Z,1024.39
2018-12-11T01:48:33.078Z,1024.38
2018-12-11T01:49:33.065Z,1024.36
2018-12-11T01:50:33.053Z,1024.34
2018-12-11T01:51:33.041Z,1024.39
2018-12-11T01:52:33.027Z,1024.43
2018-12-11T01:53:33.015Z,1024.45
2018-12-11T01:54:33.002Z,1024.43
2018-12-11T01:55:32.991Z,1024.46
2018-12-11T01:56:32.977Z,1024.44
2018-12-11T01:57:32.965Z,1024.5
2018-12-11T01:58:32.951Z,1024.44
2018-12-11T01:59:32.938Z,1024.45
2018-12-11T02:00:32.925Z,1024.43
2018-12-11T02:01:32.914Z,1024.49
2018-12-11T02:02:32.901Z,1024.41
2018-12-11T02:03:32.887Z,1024.44
2018-12-11T02:04:32.875Z,1024.48
2018-12-11T02:05:32.863Z,1024.43
2018-12-11T02:06:32.849Z,1024.44
2018-12-11T02:07:32.836Z,1024.39
2018-12-11T02:08:32.825Z,1024.47
2018-12-11T02:09:32.811Z,1024.42
2018-12-11T02:10:32.827Z,1024.43
2018-12-11T02:11:32.786Z,1024.42
2018-12-11T02:12:32.773Z,1024.51
2018-12-11T02:13:32.762Z,1024.43
2018-12-11T02:14:32.748Z,1024.41
2018-12-11T02:15:32.735Z,1024.39
2018-12-11T02:16:32.723Z,1024.34
2018-12-11T02:17:32.711Z,1024.36
2018-12-11T02:18:32.698Z,1024.35
2018-12-11T02:19:32.686Z,1024.37
2018-12-11T02:20:32.672Z,1024.3
2018-12-11T02:21:32.659Z,1024.39
2018-12-11T02:22:32.646Z,1024.31
2018-12-11T02:23:32.634Z,1024.34
2018-12-11T02:24:32.622Z,1024.33
2018-12-11T02:25:32.608Z,1024.4
2018-12-11T02:26:32.596Z,1024.38
2018-12-11T02:27:32.586Z,1024.43
2018-12-11T02:28:32.572Z,1024.47
2018-12-11T02:29:32.558Z,1024.5
2018-12-11T02:30:32.547Z,1024.51
2018-12-11T02:31:32.534Z,1024.52
2018-12-11T02:32:32.522Z,1024.49
2018-12-11T02:33:32.759Z,1024.42
2018-12-11T02:34:32.495Z,1024.43
2018-12-11T02:35:32.483Z,1024.45
2018-12-11T02:36:32.469Z,1024.43
2018-12-11T02:37:32.458Z,1024.39
2018-12-11T02:38:32.445Z,1024.4
2018-12-11T02:39:32.432Z,1024.35
2018-12-11T02:40:32.420Z,1024.36
2018-12-11T02:41:32.408Z,1024.44
2018-12-11T02:42:32.394Z,1024.38
2018-12-11T02:43:32.382Z,1024.36
2018-12-11T02:44:32.369Z,1024.34
2018-12-11T02:45:32.356Z,1024.34
2018-12-11T02:46:32.343Z,1024.33
2018-12-11T02:47:32.329Z,1024.28
2018-12-11T02:48:32.318Z,1024.27
2018-12-11T02:49:32.310Z,1024.32
2018-12-11T02:50:32.292Z,1024.33
2018-12-11T02:51:32.280Z,1024.35
2018-12-11T02:52:32.267Z,1024.28
2018-12-11T02:53:32.255Z,1024.32
2018-12-11T02:54:32.242Z,1024.18
2018-12-11T02:55:32.232Z,1024.25
2018-12-11T02:56:32.216Z,1024.24
2018-12-11T02:57:32.204Z,1024.19
2018-12-11T02:58:32.189Z,1024.21
2018-12-11T02:59:32.178Z,1024.17
2018-12-11T03:00:32.165Z,1024.19
2018-12-11T03:01:32.153Z,1024.19
2018-12-11T03:02:32.139Z,1024.12
2018-12-11T03:03:32.127Z,1024.18
2018-12-11T03:04:32.115Z,1024.16
2018-12-11T03:05:32.104Z,1024.12
2018-12-11T03:06:32.091Z,1024.12
2018-12-11T03:07:32.075Z,1024.11
2018-12-11T03:08:32.062Z,1024.06
2018-12-11T03:09:32.051Z,1024.05
2018-12-11T03:10:32.039Z,1024.08
2018-12-11T03:11:32.024Z,1024.08
2018-12-11T03:12:32.013Z,1024.15
2018-12-11T03:13:32.000Z,1024.12
2018-12-11T03:14:31.987Z,1024
2018-12-11T03:15:31.976Z,1024.17
2018-12-11T03:16:31.961Z,1024.1
2018-12-11T03:17:31.949Z,1024.2
2018-12-11T03:18:31.937Z,1024.17
2018-12-11T03:19:31.924Z,1024.11
2018-12-11T03:20:31.929Z,1024.09
2018-12-11T03:21:31.899Z,1024.12
2018-12-11T03:22:31.887Z,1024.05
2018-12-11T03:23:31.876Z,1024.1
2018-12-11T03:24:31.861Z,1024.19
2018-12-11T03:25:31.849Z,1024.11
2018-12-11T03:26:31.835Z,1024.12
2018-12-11T03:27:31.821Z,1024.09
2018-12-11T03:28:31.814Z,1024.07
2018-12-11T03:29:31.806Z,1024.14
2018-12-11T03:30:31.787Z,1024.13
2018-12-11T03:31:31.772Z,1024.1
2018-12-11T03:32:31.762Z,1024.08
2018-12-11T03:33:31.746Z,1024
2018-12-11T03:34:31.733Z,1024.11
2018-12-11T03:35:31.720Z,1024.09
2018-12-11T03:36:31.708Z,1024.05
2018-12-11T03:37:31.697Z,1024.1
2018-12-11T03:38:31.682Z,1024.08
2018-12-11T03:39:31.670Z,1024.05
2018-12-11T03:40:31.657Z,1024.03
2018-12-11T03:41:31.645Z,1024.01
2018-12-11T03:42:31.631Z,1023.85
2018-12-11T03:43:31.620Z,1023.98
2018-12-11T03:44:31.609Z,1023.95
2018-12-11T03:45:31.594Z,1023.93
2018-12-11T03:46:31.581Z,1023.92
2018-12-11T03:47:31.568Z,1023.98
2018-12-11T03:48:31.562Z,1023.92
2018-12-11T03:49:31.549Z,1023.92
2018-12-11T03:50:31.531Z,1023.95
2018-12-11T03:51:31.519Z,1023.92
2018-12-11T03:52:31.506Z,1023.94
2018-12-11T03:53:31.493Z,1023.99
2018-12-11T03:54:31.481Z,1023.97
2018-12-11T03:55:31.468Z,1023.92
2018-12-11T03:56:31.455Z,1023.95
2018-12-11T03:57:31.442Z,1023.98
2018-12-11T03:58:31.430Z,1023.84
2018-12-11T03:59:31.416Z,1023.93
2018-12-11T04:00:31.403Z,1023.9
2018-12-11T04:01:31.392Z,1023.9
2018-12-11T04:02:31.381Z,1023.94
2018-12-11T04:03:31.368Z,1023.91
2018-12-11T04:04:31.352Z,1023.97
2018-12-11T04:05:31.339Z,1023.86
2018-12-11T04:06:31.328Z,1023.77
2018-12-11T04:07:31.315Z,1023.83
2018-12-11T04:08:31.303Z,1023.83
2018-12-11T04:09:31.297Z,1023.8
2018-12-11T04:10:31.277Z,1023.82
2018-12-11T04:11:31.263Z,1023.87
2018-12-11T04:12:31.253Z,1023.86
2018-12-11T04:13:31.239Z,1023.91
2018-12-11T04:14:31.227Z,1023.83
2018-12-11T04:15:31.213Z,1023.9
2018-12-11T04:16:31.202Z,1023.94
2018-12-11T04:17:31.195Z,1024.01
2018-12-11T04:18:31.176Z,1023.94
2018-12-11T04:19:31.163Z,1024.07
2018-12-11T04:20:31.164Z,1024.07
2018-12-11T04:21:31.138Z,1024.09
2018-12-11T04:22:31.125Z,1024.03
2018-12-11T04:23:31.113Z,1024.03
2018-12-11T04:24:31.101Z,1024.11
2018-12-11T04:25:31.087Z,1024.14
2018-12-11T04:26:31.075Z,1024.12
2018-12-11T04:27:31.061Z,1024.13
2018-12-11T04:28:31.050Z,1024.14
2018-12-11T04:29:31.037Z,1024.22
2018-12-11T04:30:31.024Z,1024.14
2018-12-11T04:31:31.012Z,1024.12
2018-12-11T04:32:30.998Z,1024.14
2018-12-11T04:33:30.985Z,1024.2
2018-12-11T04:34:30.972Z,1024.13
2018-12-11T04:35:30.963Z,1024.17
2018-12-11T04:36:30.951Z,1024.17
2018-12-11T04:37:30.937Z,1024.22
2018-12-11T04:38:30.923Z,1024.25
2018-12-11T04:39:33.731Z,1024.26
2018-12-11T04:40:30.897Z,1024.33
2018-12-11T04:41:30.883Z,1024.3
2018-12-11T04:42:30.871Z,1024.4
2018-12-11T04:43:30.859Z,1024.44
2018-12-11T04:44:30.846Z,1024.39
2018-12-11T04:45:30.832Z,1024.53
2018-12-11T04:46:30.820Z,1024.44
2018-12-11T04:47:30.806Z,1024.47
2018-12-11T04:48:30.794Z,1024.52
2018-12-11T04:49:30.783Z,1024.57
2018-12-11T04:50:30.772Z,1024.52
2018-12-11T04:51:30.757Z,1024.61
2018-12-11T04:52:30.744Z,1024.58
2018-12-11T04:53:30.730Z,1024.52
2018-12-11T04:54:30.718Z,1024.63
2018-12-11T04:55:30.705Z,1024.63
2018-12-11T04:56:30.693Z,1024.64
2018-12-11T04:57:30.678Z,1024.7
2018-12-11T04:58:30.664Z,1024.74
2018-12-11T04:59:30.656Z,1024.69
2018-12-11T05:00:30.639Z,1024.75
2018-12-11T05:01:30.627Z,1024.76
2018-12-11T05:02:30.612Z,1024.77
2018-12-11T05:03:30.601Z,1024.89
2018-12-11T05:04:30.590Z,1024.89
2018-12-11T05:05:30.574Z,1024.89
2018-12-11T05:06:30.562Z,1024.94
2018-12-11T05:07:30.549Z,1024.92
2018-12-11T05:08:30.534Z,1024.9
2018-12-11T05:09:30.772Z,1024.89
2018-12-11T05:10:30.509Z,1025.04
2018-12-11T05:11:30.526Z,1025.02
2018-12-11T05:12:30.483Z,1025.06
2018-12-11T05:13:30.470Z,1025.08
2018-12-11T05:14:30.456Z,1025.01
2018-12-11T05:15:30.442Z,1025.13
2018-12-11T05:16:30.428Z,1025.09
2018-12-11T05:17:30.415Z,1025.07
2018-12-11T05:18:30.403Z,1025.2
2018-12-11T05:19:30.389Z,1025.32
2018-12-11T05:20:30.374Z,1024.96
2018-12-11T05:21:30.362Z,1025.15
2018-12-11T05:22:30.349Z,1025.22
2018-12-11T05:23:30.335Z,1025.19
2018-12-11T05:24:30.321Z,1025.24
2018-12-11T05:25:30.308Z,1025.13
2018-12-11T05:26:30.295Z,1025.21
2018-12-11T05:27:30.281Z,1025.17
2018-12-11T05:28:30.268Z,1025.16
2018-12-11T05:29:30.256Z,1025.19
2018-12-11T05:30:30.248Z,1025.13
2018-12-11T05:31:30.228Z,1025.21
2018-12-11T05:32:30.216Z,1025.22
2018-12-11T05:33:30.205Z,1025.17
2018-12-11T05:34:30.188Z,1025.21
2018-12-11T05:35:30.176Z,1025.22
2018-12-11T05:36:30.160Z,1025.15
2018-12-11T05:37:30.147Z,1025.23
2018-12-11T05:38:30.134Z,1025.27
2018-12-11T05:39:30.123Z,1025.3
2018-12-11T05:40:30.108Z,1025.35
2018-12-11T05:41:30.094Z,1025.34
2018-12-11T05:42:30.080Z,1025.37
2018-12-11T05:43:30.067Z,1025.34
2018-12-11T05:44:30.054Z,1025.38
2018-12-11T05:45:30.040Z,1025.43
2018-12-11T05:46:30.029Z,1025.38
2018-12-11T05:47:30.012Z,1025.41
2018-12-11T05:48:29.999Z,1025.35
2018-12-11T05:49:29.985Z,1025.37
2018-12-11T05:50:29.971Z,1025.34
2018-12-11T05:51:29.957Z,1025.36
2018-12-11T05:52:29.944Z,1025.28
2018-12-11T05:53:29.930Z,1025.44
2018-12-11T05:54:29.917Z,1025.36
2018-12-11T05:55:29.903Z,1025.33
2018-12-11T05:56:29.890Z,1025.29
2018-12-11T05:57:29.875Z,1025.36
2018-12-11T05:58:29.865Z,1025.38
2018-12-11T05:59:29.851Z,1025.41
2018-12-11T06:00:29.838Z,1025.46
2018-12-11T06:01:29.823Z,1025.4
2018-12-11T06:02:29.810Z,1025.46
2018-12-11T06:03:29.798Z,1025.51
2018-12-11T06:04:29.781Z,1025.46
2018-12-11T06:05:29.769Z,1025.53
2018-12-11T06:06:29.755Z,1025.5
2018-12-11T06:07:29.743Z,1025.46
2018-12-11T06:08:29.728Z,1025.55
2018-12-11T06:09:29.714Z,1025.6
2018-12-11T06:10:29.701Z,1025.59
2018-12-11T06:11:29.687Z,1025.6
2018-12-11T06:12:29.710Z,1025.62
2018-12-11T06:13:29.659Z,1025.64
2018-12-11T06:14:29.646Z,1025.7
2018-12-11T06:15:29.631Z,1025.67
2018-12-11T06:16:29.617Z,1025.65
2018-12-11T06:17:29.605Z,1025.6
2018-12-11T06:18:29.610Z,1025.69
2018-12-11T06:19:29.578Z,1025.73
2018-12-11T06:20:29.567Z,1025.64
2018-12-11T06:21:29.550Z,1025.72
2018-12-11T06:22:29.536Z,1025.82
2018-12-11T06:23:29.524Z,1025.85
2018-12-11T06:24:29.510Z,1025.99
2018-12-11T06:25:29.497Z,1026.1
2018-12-11T06:26:29.483Z,1026.26
2018-12-11T06:27:29.475Z,1026.22
2018-12-11T06:28:29.456Z,1026.33
2018-12-11T06:29:29.442Z,1026.4
2018-12-11T06:30:29.428Z,1026.42
2018-12-11T06:31:29.415Z,1026.5
2018-12-11T06:32:29.402Z,1026.76
2018-12-11T06:33:29.389Z,1026.54
2018-12-11T06:34:29.373Z,1026.55
2018-12-11T06:35:29.360Z,1026.64
2018-12-11T06:36:29.346Z,1026.74
2018-12-11T06:37:29.332Z,1026.66
2018-12-11T06:38:29.318Z,1026.75
2018-12-11T06:39:29.305Z,1026.73
2018-12-11T06:40:29.291Z,1026.75
2018-12-11T06:41:29.281Z,1026.68
2018-12-11T06:42:29.263Z,1026.75
2018-12-11T06:43:29.250Z,1026.77
2018-12-11T06:44:29.234Z,1026.76
2018-12-11T06:45:29.219Z,1026.76
2018-12-11T06:46:29.206Z,1026.82
2018-12-11T06:47:29.194Z,1026.85
2018-12-11T06:48:29.177Z,1026.88
2018-12-11T06:49:29.166Z,1026.86
2018-12-11T06:50:29.160Z,1026.85
2018-12-11T06:51:29.136Z,1026.86
2018-12-11T06:52:29.121Z,1026.84
2018-12-11T06:53:29.357Z,1026.84
2018-12-11T06:54:29.092Z,1026.87
2018-12-11T06:55:29.077Z,1026.91
2018-12-11T06:56:29.063Z,1026.93
2018-12-11T06:57:29.050Z,1026.9
2018-12-11T06:58:29.036Z,1026.95
2018-12-11T06:59:29.021Z,1026.94
2018-12-11T07:00:29.007Z,1026.97
2018-12-11T07:01:28.992Z,1026.99
2018-12-11T07:02:28.978Z,1027.02
2018-12-11T07:03:28.963Z,1027.04
2018-12-11T07:04:28.949Z,1027.08
2018-12-11T07:05:28.935Z,1027.08
2018-12-11T07:06:28.921Z,1027.08
2018-12-11T07:07:28.905Z,1027.12
2018-12-11T07:08:28.891Z,1027.11
2018-12-11T07:09:28.879Z,1027.12
2018-12-11T07:10:28.864Z,1027.07
2018-12-11T07:11:28.850Z,1027.05
2018-12-11T07:12:28.834Z,1027.01
2018-12-11T07:13:28.821Z,1027.06
2018-12-11T07:14:28.805Z,1027.03
2018-12-11T07:15:28.791Z,1026.88
2018-12-11T07:16:28.777Z,1026.96
2018-12-11T07:17:28.762Z,1026.92
2018-12-11T07:18:28.748Z,1026.97
2018-12-11T07:19:28.734Z,1026.94
2018-12-11T07:20:28.720Z,1026.9
2018-12-11T07:21:28.706Z,1026.91
2018-12-11T07:22:28.693Z,1026.87
2018-12-11T07:23:28.678Z,1026.87
2018-12-11T07:24:28.665Z,1026.84
2018-12-11T07:25:28.648Z,1026.8
2018-12-11T07:26:28.634Z,1026.76
2018-12-11T07:27:28.620Z,1026.68
2018-12-11T07:28:28.607Z,1026.68
2018-12-11T07:29:28.591Z,1026.63
2018-12-11T07:30:28.578Z,1026.62
2018-12-11T07:31:28.565Z,1026.6
2018-12-11T07:32:28.549Z,1026.65
2018-12-11T07:33:28.539Z,1026.66
2018-12-11T07:34:28.523Z,1026.67
2018-12-11T07:35:28.508Z,1026.72
2018-12-11T07:36:28.493Z,1026.74
2018-12-11T07:37:28.479Z,1026.81
2018-12-11T07:38:28.466Z,1026.74
2018-12-11T07:39:28.451Z,1026.79
2018-12-11T07:40:28.437Z,1026.74
2018-12-11T07:41:28.424Z,1026.74
2018-12-11T07:42:28.409Z,1026.72
2018-12-11T07:43:28.395Z,1026.67
2018-12-11T07:44:28.381Z,1026.65
2018-12-11T07:45:28.370Z,1026.7
2018-12-11T07:46:28.354Z,1026.75
2018-12-11T07:47:28.342Z,1026.69
2018-12-11T07:48:28.327Z,1026.69
2018-12-11T07:49:28.320Z,1026.64
2018-12-11T07:50:28.299Z,1026.72
2018-12-11T07:51:28.284Z,1026.7
2018-12-11T07:52:28.276Z,1026.7
2018-12-11T07:53:28.258Z,1026.59
2018-12-11T07:54:28.243Z,1026.62
2018-12-11T07:55:28.229Z,1026.65
2018-12-11T07:56:28.215Z,1026.66
2018-12-11T07:57:28.203Z,1026.77
2018-12-11T07:58:28.190Z,1026.79
2018-12-11T07:59:28.175Z,1026.78
2018-12-11T08:00:28.162Z,1027
2018-12-11T08:01:28.147Z,1027
2018-12-11T08:02:28.133Z,1026.92
2018-12-11T08:03:28.126Z,1027.05
2018-12-11T08:04:28.109Z,1026.96
2018-12-11T08:05:28.093Z,1027.09
2018-12-11T08:06:28.078Z,1027.15
2018-12-11T08:07:28.065Z,1027.11
2018-12-11T08:08:28.050Z,1027.15
2018-12-11T08:09:28.038Z,1027.16
2018-12-11T08:10:28.025Z,1027.12
2018-12-11T08:11:28.011Z,1027.17
2018-12-11T08:12:27.996Z,1027.16
2018-12-11T08:13:27.982Z,1027.17
2018-12-11T08:14:27.969Z,1027.18
2018-12-11T08:15:27.956Z,1027.12
2018-12-11T08:16:27.941Z,1027.18
2018-12-11T08:17:27.928Z,1027.2
2018-12-11T08:18:27.914Z,1027.21
2018-12-11T08:19:27.900Z,1027.23
2018-12-11T08:20:27.886Z,1027.2
2018-12-11T08:21:27.874Z,1027.37
2018-12-11T08:22:27.860Z,1027.16
2018-12-11T08:23:27.846Z,1027.18
2018-12-11T08:24:27.832Z,1027.17
2018-12-11T08:25:27.818Z,1027.24
2018-12-11T08:26:27.804Z,1027.22
2018-12-11T08:27:27.790Z,1027.22
2018-12-11T08:28:27.776Z,1027.14
2018-12-11T08:29:27.764Z,1027.17
2018-12-11T08:30:27.750Z,1027.16
2018-12-11T08:31:27.737Z,1027.2
2018-12-11T08:32:27.722Z,1027.21
2018-12-11T08:33:27.708Z,1027.25
2018-12-11T08:34:27.694Z,1027.38
2018-12-11T08:35:27.681Z,1027.41
2018-12-11T08:36:27.667Z,1027.43
2018-12-11T08:37:27.654Z,1027.52
2018-12-11T08:38:27.641Z,1027.58
2018-12-11T08:39:27.635Z,1027.61
2018-12-11T08:40:27.614Z,1027.65
2018-12-11T08:41:27.598Z,1027.74
2018-12-11T08:42:27.586Z,1027.78
2018-12-11T08:43:27.573Z,1027.77
2018-12-11T08:44:27.560Z,1027.85
2018-12-11T08:45:27.545Z,1027.83
2018-12-11T08:46:27.531Z,1027.88
2018-12-11T08:47:27.518Z,1027.93
2018-12-11T08:48:27.504Z,1027.92
2018-12-11T08:49:27.492Z,1027.92
2018-12-11T08:50:27.477Z,1027.9
2018-12-11T08:51:27.465Z,1027.94
2018-12-11T08:52:27.449Z,1027.77
2018-12-11T08:53:27.437Z,1027.82
2018-12-11T08:54:27.423Z,1027.81
2018-12-11T08:55:27.409Z,1027.86
2018-12-11T08:56:27.395Z,1027.94
2018-12-11T08:57:27.381Z,1027.85
2018-12-11T08:58:27.368Z,1027.82
2018-12-11T08:59:27.355Z,1027.82
2018-12-11T09:00:27.340Z,1027.69
2018-12-11T09:01:27.328Z,1027.65
2018-12-11T09:02:27.315Z,1027.63
2018-12-11T09:03:27.300Z,1027.55
2018-12-11T09:04:27.286Z,1027.62
2018-12-11T09:05:27.276Z,1027.51
2018-12-11T09:06:27.259Z,1027.6
2018-12-11T09:07:27.245Z,1027.51
2018-12-11T09:08:27.233Z,1027.5
2018-12-11T09:09:27.220Z,1027.56
2018-12-11T09:10:27.207Z,1027.57
2018-12-11T09:11:27.192Z,1027.68
2018-12-11T09:12:27.179Z,1027.73
2018-12-11T09:13:27.168Z,1027.76
2018-12-11T09:14:27.152Z,1027.83
2018-12-11T09:15:27.141Z,1027.97
2018-12-11T09:16:27.126Z,1027.85
2018-12-11T09:17:27.113Z,1027.99
2018-12-11T09:18:27.099Z,1027.82
2018-12-11T09:19:27.090Z,1027.74
2018-12-11T09:20:27.073Z,1027.7
2018-12-11T09:21:27.061Z,1027.68
2018-12-11T09:22:27.045Z,1027.62
2018-12-11T09:23:27.035Z,1027.65
2018-12-11T09:24:27.020Z,1027.6
2018-12-11T09:25:27.007Z,1027.59
2018-12-11T09:26:28.278Z,1027.63
2018-12-11T09:27:26.982Z,1027.63
2018-12-11T09:28:26.967Z,1027.58
2018-12-11T09:29:26.953Z,1027.56
2018-12-11T09:30:26.940Z,1027.52
2018-12-11T09:31:26.928Z,1027.52
2018-12-11T09:32:26.915Z,1027.5
2018-12-11T09:33:26.901Z,1027.5
2018-12-11T09:34:26.889Z,1027.54
2018-12-11T09:35:26.878Z,1027.46
2018-12-11T09:36:26.862Z,1027.52
2018-12-11T09:37:26.853Z,1027.5
2018-12-11T09:38:26.838Z,1027.47
2018-12-11T09:39:26.825Z,1027.43
2018-12-11T09:40:26.811Z,1027.5
2018-12-11T09:41:26.798Z,1027.54
2018-12-11T09:42:28.001Z,1027.54
2018-12-11T09:43:26.772Z,1027.55
2018-12-11T09:44:26.760Z,1027.68
2018-12-11T09:45:26.746Z,1027.77
2018-12-11T09:46:26.734Z,1027.8
2018-12-11T09:47:26.723Z,1027.77
2018-12-11T09:48:26.708Z,1028.06
2018-12-11T09:49:26.696Z,1027.9
2018-12-11T09:50:26.684Z,1027.94
2018-12-11T09:51:26.669Z,1027.96
2018-12-11T09:52:26.657Z,1028.05
2018-12-11T09:53:26.644Z,1028.04
2018-12-11T09:54:26.630Z,1028.06
2018-12-11T09:55:26.617Z,1028.08
2018-12-11T09:56:26.671Z,1028.11
2018-12-11T09:57:26.592Z,1028.17
2018-12-11T09:58:26.578Z,1028.16
2018-12-11T09:59:26.566Z,1028.32
2018-12-11T10:00:27.435Z,1028.32
2018-12-11T10:01:26.542Z,1028.36
2018-12-11T10:02:26.526Z,1028.4
2018-12-11T10:03:26.521Z,1028.43
2018-12-11T10:04:26.501Z,1028.48
2018-12-11T10:05:26.486Z,1028.54
2018-12-11T10:06:26.473Z,1028.51
2018-12-11T10:07:26.461Z,1028.58
2018-12-11T10:08:26.448Z,1028.54
2018-12-11T10:09:26.434Z,1028.55
2018-12-11T10:10:26.422Z,1028.57
2018-12-11T10:11:26.413Z,1028.55
2018-12-11T10:12:26.397Z,1028.46
2018-12-11T10:13:26.381Z,1028.51
2018-12-11T10:14:26.368Z,1028.48
2018-12-11T10:15:26.355Z,1028.54
2018-12-11T10:16:26.342Z,1028.58
2018-12-11T10:17:26.329Z,1028.56
2018-12-11T10:18:26.316Z,1028.51
2018-12-11T10:19:26.304Z,1028.58
2018-12-11T10:20:26.290Z,1028.57
2018-12-11T10:21:26.277Z,1028.57
2018-12-11T10:22:26.265Z,1028.55
2018-12-11T10:23:31.694Z,1028.44
2018-12-11T10:24:26.238Z,1028.36
2018-12-11T10:25:26.225Z,1028.31
2018-12-11T10:26:26.212Z,1028.27
2018-12-11T10:27:26.198Z,1028.26
2018-12-11T10:28:26.186Z,1028.25
2018-12-11T10:29:26.173Z,1028.26
2018-12-11T10:30:26.161Z,1028.31
2018-12-11T10:31:26.149Z,1028.36
2018-12-11T10:32:26.135Z,1028.35
2018-12-11T10:33:26.123Z,1028.41
2018-12-11T10:34:26.108Z,1028.47
2018-12-11T10:35:26.095Z,1028.53
2018-12-11T10:36:26.082Z,1028.61
2018-12-11T10:37:26.074Z,1028.57
2018-12-11T10:38:26.057Z,1028.64
2018-12-11T10:39:26.045Z,1028.62
2018-12-11T10:40:26.031Z,1028.62
2018-12-11T10:41:26.019Z,1028.59
2018-12-11T10:42:26.005Z,1028.61
2018-12-11T10:43:25.993Z,1028.55
2018-12-11T10:44:25.980Z,1028.57
2018-12-11T10:45:25.967Z,1028.55
2018-12-11T10:46:25.952Z,1028.52
2018-12-11T10:47:25.940Z,1028.55
2018-12-11T10:48:25.927Z,1028.55
2018-12-11T10:49:25.914Z,1028.49
2018-12-11T10:50:25.902Z,1028.52
2018-12-11T10:51:25.889Z,1028.51
2018-12-11T10:52:26.126Z,1028.54
2018-12-11T10:53:25.862Z,1028.58
2018-12-11T10:54:25.850Z,1028.63
2018-12-11T10:55:25.839Z,1028.66
2018-12-11T10:56:25.825Z,1028.66
2018-12-11T10:57:25.811Z,1028.68
2018-12-11T10:58:25.798Z,1028.7
2018-12-11T10:59:25.787Z,1028.69
2018-12-11T11:00:25.772Z,1028.71
2018-12-11T11:01:25.761Z,1028.75
2018-12-11T11:02:25.749Z,1028.67
2018-12-11T11:03:25.737Z,1028.71
2018-12-11T11:04:25.722Z,1028.75
2018-12-11T11:05:25.708Z,1028.83
2018-12-11T11:06:25.697Z,1028.83
2018-12-11T11:07:25.683Z,1028.78
2018-12-11T11:08:25.671Z,1028.81
2018-12-11T11:09:25.658Z,1028.89
2018-12-11T11:10:25.684Z,1028.85
2018-12-11T11:11:25.632Z,1028.85
2018-12-11T11:12:25.630Z,1028.91
2018-12-11T11:13:25.606Z,1028.87
2018-12-11T11:14:25.595Z,1028.91
2018-12-11T11:15:25.580Z,1028.94
2018-12-11T11:16:25.567Z,1028.87
2018-12-11T11:17:25.555Z,1028.94
2018-12-11T11:18:25.541Z,1028.92
2018-12-11T11:19:25.529Z,1028.85
2018-12-11T11:20:25.517Z,1028.84
2018-12-11T11:21:25.503Z,1028.83
2018-12-11T11:22:25.490Z,1028.88
2018-12-11T11:23:25.477Z,1028.82
2018-12-11T11:24:25.464Z,1028.79
2018-12-11T11:25:25.453Z,1028.89
2018-12-11T11:26:25.439Z,1028.84
2018-12-11T11:27:25.425Z,1028.85
2018-12-11T11:28:25.414Z,1028.87
2018-12-11T11:29:25.399Z,1028.91
2018-12-11T11:30:25.386Z,1028.89
2018-12-11T11:31:25.375Z,1028.85
2018-12-11T11:32:25.361Z,1028.8
2018-12-11T11:33:25.347Z,1028.9
2018-12-11T11:34:25.335Z,1028.89
2018-12-11T11:35:25.322Z,1028.97
2018-12-11T11:36:25.311Z,1029.03
2018-12-11T11:37:25.296Z,1029.1
2018-12-11T11:38:25.286Z,1029.09
2018-12-11T11:39:25.320Z,1029.13
2018-12-11T11:40:25.257Z,1029.17
2018-12-11T11:41:25.245Z,1029.19
2018-12-11T11:42:25.231Z,1029.23
2018-12-11T11:43:25.227Z,1029.23
2018-12-11T11:44:25.205Z,1029.19
2018-12-11T11:45:25.192Z,1029.31
2018-12-11T11:46:25.183Z,1029.43
2018-12-11T11:47:25.168Z,1029.45
2018-12-11T11:48:25.153Z,1029.56
2018-12-11T11:49:25.141Z,1029.49
2018-12-11T11:50:25.127Z,1029.59
2018-12-11T11:51:25.114Z,1029.62
2018-12-11T11:52:25.102Z,1029.62
2018-12-11T11:53:25.088Z,1029.61
2018-12-11T11:54:25.076Z,1029.68
2018-12-11T11:55:25.061Z,1029.68
2018-12-11T11:56:25.048Z,1029.8
2018-12-11T11:57:29.641Z,1029.81
2018-12-11T11:58:25.023Z,1029.87
2018-12-11T11:59:25.009Z,1030.02
2018-12-11T12:00:24.996Z,1030.15
2018-12-11T12:01:24.983Z,1030.11
2018-12-11T12:02:24.971Z,1030.15
2018-12-11T12:03:24.956Z,1030.16
2018-12-11T12:04:24.943Z,1030.2
2018-12-11T12:05:24.929Z,1030.22
2018-12-11T12:06:24.915Z,1030.22
2018-12-11T12:07:24.902Z,1030.3
2018-12-11T12:08:24.904Z,1030.35